sensor_id;sensor_type;location;lat;lon;timestamp;P1;durP1;ratioP1;P2;durP2;ratioP2
8151;SDS011;4117;53.622;9.958;2022-10-30T00:00:42;1.53;;;1.40;;
8151;SDS011;4117;53.622;9.958;2022-10-30T00:03:10;2.00;;;1.60;;
8151;SDS011;4117;53.622;9.958;2022-10-30T00:05:39;2.77;;;1.47;;
8151;SDS011;4117;53.622;9.958;2022-10-30T00:08:09;1.67;;;1.57;;
8151;SDS011;4117;53.622;9.958;2022-10-30T00:10:36;2.80;;;1.90;;
8151;SDS011;4117;53.622;9.958;2022-10-30T00:13:03;7.80;;;2.27;;
8151;SDS011;4117;53.622;9.958;2022-10-30T00:15:30;4.77;;;1.73;;
8151;SDS011;4117;53.622;9.958;2022-10-30T00:17:57;1.60;;;1.30;;
8151;SDS011;4117;53.622;9.958;2022-10-30T00:20:24;2.57;;;1.70;;
8151;SDS011;4117;53.622;9.958;2022-10-30T00:22:51;3.40;;;1.67;;
8151;SDS011;4117;53.622;9.958;2022-10-30T00:25:19;1.77;;;1.23;;
8151;SDS011;4117;53.622;9.958;2022-10-30T00:27:46;1.87;;;1.57;;
8151;SDS011;4117;53.622;9.958;2022-10-30T00:30:13;2.80;;;1.70;;
8151;SDS011;4117;53.622;9.958;2022-10-30T00:32:40;4.23;;;2.07;;
8151;SDS011;4117;53.622;9.958;2022-10-30T00:35:08;3.07;;;1.73;;
8151;SDS011;4117;53.622;9.958;2022-10-30T00:37:35;3.87;;;2.03;;
8151;SDS011;4117;53.622;9.958;2022-10-30T00:40:02;2.90;;;1.50;;
8151;SDS011;4117;53.622;9.958;2022-10-30T00:42:32;3.30;;;1.97;;
8151;SDS011;4117;53.622;9.958;2022-10-30T00:44:59;3.37;;;1.70;;
8151;SDS011;4117;53.622;9.958;2022-10-30T00:47:26;3.47;;;2.07;;
8151;SDS011;4117;53.622;9.958;2022-10-30T00:49:57;3.93;;;2.00;;
8151;SDS011;4117;53.622;9.958;2022-10-30T00:52:27;4.33;;;2.00;;
8151;SDS011;4117;53.622;9.958;2022-10-30T00:54:57;6.40;;;2.17;;
8151;SDS011;4117;53.622;9.958;2022-10-30T00:57:27;5.50;;;1.77;;
8151;SDS011;4117;53.622;9.958;2022-10-30T00:59:56;3.33;;;1.83;;
8151;SDS011;4117;53.622;9.958;2022-10-30T01:02:23;4.53;;;2.00;;
8151;SDS011;4117;53.622;9.958;2022-10-30T01:04:50;2.90;;;1.80;;
8151;SDS011;4117;53.622;9.958;2022-10-30T01:07:19;4.77;;;2.27;;
8151;SDS011;4117;53.622;9.958;2022-10-30T01:09:46;6.03;;;2.70;;
8151;SDS011;4117;53.622;9.958;2022-10-30T01:12:13;5.60;;;2.00;;
8151;SDS011;4117;53.622;9.958;2022-10-30T01:14:42;2.77;;;1.97;;
8151;SDS011;4117;53.622;9.958;2022-10-30T01:20:13;3.13;;;1.63;;
8151;SDS011;4117;53.622;9.958;2022-10-30T01:22:51;4.67;;;2.00;;
8151;SDS011;4117;53.622;9.958;2022-10-30T01:25:31;5.67;;;2.43;;
8151;SDS011;4117;53.622;9.958;2022-10-30T01:28:09;2.77;;;2.00;;
8151;SDS011;4117;53.622;9.958;2022-10-30T01:30:51;4.57;;;1.67;;
8151;SDS011;4117;53.622;9.958;2022-10-30T01:33:39;5.00;;;2.33;;
8151;SDS011;4117;53.622;9.958;2022-10-30T01:36:16;2.77;;;1.83;;
8151;SDS011;4117;53.622;9.958;2022-10-30T01:38:49;3.63;;;2.10;;
8151;SDS011;4117;53.622;9.958;2022-10-30T01:41:19;1.40;;;1.30;;
8151;SDS011;4117;53.622;9.958;2022-10-30T01:43:46;2.73;;;1.50;;
8151;SDS011;4117;53.622;9.958;2022-10-30T01:46:21;3.50;;;1.87;;
8151;SDS011;4117;53.622;9.958;2022-10-30T01:49:12;2.13;;;1.70;;
8151;SDS011;4117;53.622;9.958;2022-10-30T01:51:55;4.07;;;1.70;;
8151;SDS011;4117;53.622;9.958;2022-10-30T01:54:31;1.67;;;1.47;;
8151;SDS011;4117;53.622;9.958;2022-10-30T01:57:02;2.70;;;1.50;;
8151;SDS011;4117;53.622;9.958;2022-10-30T01:59:38;1.97;;;1.50;;
8151;SDS011;4117;53.622;9.958;2022-10-30T02:02:08;2.03;;;1.10;;
8151;SDS011;4117;53.622;9.958;2022-10-30T02:04:37;2.87;;;1.93;;
8151;SDS011;4117;53.622;9.958;2022-10-30T02:07:04;4.40;;;1.47;;
8151;SDS011;4117;53.622;9.958;2022-10-30T02:09:31;5.00;;;1.43;;
8151;SDS011;4117;53.622;9.958;2022-10-30T02:11:58;2.03;;;1.40;;
8151;SDS011;4117;53.622;9.958;2022-10-30T02:14:27;1.87;;;1.00;;
8151;SDS011;4117;53.622;9.958;2022-10-30T02:16:57;1.93;;;1.37;;
8151;SDS011;4117;53.622;9.958;2022-10-30T02:19:27;1.77;;;1.37;;
8151;SDS011;4117;53.622;9.958;2022-10-30T02:21:56;5.37;;;2.00;;
8151;SDS011;4117;53.622;9.958;2022-10-30T02:24:22;2.07;;;1.80;;
8151;SDS011;4117;53.622;9.958;2022-10-30T02:26:49;2.93;;;1.17;;
8151;SDS011;4117;53.622;9.958;2022-10-30T02:29:16;1.30;;;1.13;;
8151;SDS011;4117;53.622;9.958;2022-10-30T02:31:44;4.17;;;1.50;;
8151;SDS011;4117;53.622;9.958;2022-10-30T02:34:11;2.63;;;1.40;;
8151;SDS011;4117;53.622;9.958;2022-10-30T02:36:38;1.50;;;1.30;;
8151;SDS011;4117;53.622;9.958;2022-10-30T02:39:07;1.53;;;1.10;;
8151;SDS011;4117;53.622;9.958;2022-10-30T02:41:34;2.27;;;1.20;;
8151;SDS011;4117;53.622;9.958;2022-10-30T02:44:00;1.23;;;1.00;;
8151;SDS011;4117;53.622;9.958;2022-10-30T02:46:27;1.60;;;1.10;;
8151;SDS011;4117;53.622;9.958;2022-10-30T02:48:54;2.13;;;1.13;;
8151;SDS011;4117;53.622;9.958;2022-10-30T02:51:21;4.63;;;1.13;;
8151;SDS011;4117;53.622;9.958;2022-10-30T02:53:47;4.17;;;1.00;;
8151;SDS011;4117;53.622;9.958;2022-10-30T02:56:16;1.13;;;0.90;;
8151;SDS011;4117;53.622;9.958;2022-10-30T02:58:43;1.90;;;1.07;;
8151;SDS011;4117;53.622;9.958;2022-10-30T03:01:10;2.30;;;1.40;;
8151;SDS011;4117;53.622;9.958;2022-10-30T03:03:38;1.43;;;1.03;;
8151;SDS011;4117;53.622;9.958;2022-10-30T03:06:06;1.77;;;1.10;;
8151;SDS011;4117;53.622;9.958;2022-10-30T03:08:35;3.73;;;1.13;;
8151;SDS011;4117;53.622;9.958;2022-10-30T03:11:03;2.10;;;1.00;;
8151;SDS011;4117;53.622;9.958;2022-10-30T03:13:33;1.93;;;0.93;;
8151;SDS011;4117;53.622;9.958;2022-10-30T03:16:01;1.20;;;0.63;;
8151;SDS011;4117;53.622;9.958;2022-10-30T03:18:28;6.70;;;1.33;;
8151;SDS011;4117;53.622;9.958;2022-10-30T03:20:55;1.33;;;1.20;;
8151;SDS011;4117;53.622;9.958;2022-10-30T03:23:23;2.07;;;1.00;;
8151;SDS011;4117;53.622;9.958;2022-10-30T03:25:51;2.40;;;1.00;;
8151;SDS011;4117;53.622;9.958;2022-10-30T03:28:19;0.90;;;0.87;;
8151;SDS011;4117;53.622;9.958;2022-10-30T03:30:47;1.17;;;0.83;;
8151;SDS011;4117;53.622;9.958;2022-10-30T03:33:15;0.80;;;0.73;;
8151;SDS011;4117;53.622;9.958;2022-10-30T03:35:42;1.37;;;0.90;;
8151;SDS011;4117;53.622;9.958;2022-10-30T03:38:10;1.43;;;1.13;;
8151;SDS011;4117;53.622;9.958;2022-10-30T03:40:37;0.70;;;0.70;;
8151;SDS011;4117;53.622;9.958;2022-10-30T03:43:04;0.90;;;0.83;;
8151;SDS011;4117;53.622;9.958;2022-10-30T03:45:31;2.67;;;1.17;;
8151;SDS011;4117;53.622;9.958;2022-10-30T03:48:00;0.97;;;0.77;;
8151;SDS011;4117;53.622;9.958;2022-10-30T03:50:28;1.03;;;0.70;;
8151;SDS011;4117;53.622;9.958;2022-10-30T03:52:55;1.03;;;0.70;;
8151;SDS011;4117;53.622;9.958;2022-10-30T03:55:22;1.40;;;1.30;;
8151;SDS011;4117;53.622;9.958;2022-10-30T03:57:50;1.00;;;0.83;;
8151;SDS011;4117;53.622;9.958;2022-10-30T04:00:17;2.10;;;1.20;;
8151;SDS011;4117;53.622;9.958;2022-10-30T04:02:47;1.73;;;1.03;;
8151;SDS011;4117;53.622;9.958;2022-10-30T04:05:16;0.90;;;0.70;;
8151;SDS011;4117;53.622;9.958;2022-10-30T04:07:45;1.27;;;0.90;;
8151;SDS011;4117;53.622;9.958;2022-10-30T04:10:12;3.13;;;0.90;;
8151;SDS011;4117;53.622;9.958;2022-10-30T04:12:40;0.60;;;0.60;;
8151;SDS011;4117;53.622;9.958;2022-10-30T04:15:07;1.37;;;0.90;;
8151;SDS011;4117;53.622;9.958;2022-10-30T04:17:34;2.37;;;0.93;;
8151;SDS011;4117;53.622;9.958;2022-10-30T04:20:00;4.77;;;1.17;;
8151;SDS011;4117;53.622;9.958;2022-10-30T04:22:29;0.87;;;0.77;;
8151;SDS011;4117;53.622;9.958;2022-10-30T04:24:55;0.80;;;0.80;;
8151;SDS011;4117;53.622;9.958;2022-10-30T04:27:22;1.57;;;0.90;;
8151;SDS011;4117;53.622;9.958;2022-10-30T04:29:49;1.13;;;1.00;;
8151;SDS011;4117;53.622;9.958;2022-10-30T04:32:16;2.63;;;1.30;;
8151;SDS011;4117;53.622;9.958;2022-10-30T04:34:43;1.47;;;0.90;;
8151;SDS011;4117;53.622;9.958;2022-10-30T04:37:10;2.97;;;1.10;;
8151;SDS011;4117;53.622;9.958;2022-10-30T04:39:38;4.00;;;0.97;;
8151;SDS011;4117;53.622;9.958;2022-10-30T04:42:05;2.13;;;0.70;;
8151;SDS011;4117;53.622;9.958;2022-10-30T04:44:31;2.10;;;1.00;;
8151;SDS011;4117;53.622;9.958;2022-10-30T04:46:58;4.17;;;0.70;;
8151;SDS011;4117;53.622;9.958;2022-10-30T04:49:25;1.13;;;1.00;;
8151;SDS011;4117;53.622;9.958;2022-10-30T04:51:52;1.03;;;0.97;;
8151;SDS011;4117;53.622;9.958;2022-10-30T04:54:18;1.37;;;0.87;;
8151;SDS011;4117;53.622;9.958;2022-10-30T04:56:47;1.80;;;0.90;;
8151;SDS011;4117;53.622;9.958;2022-10-30T04:59:14;1.50;;;0.90;;
8151;SDS011;4117;53.622;9.958;2022-10-30T05:01:40;3.83;;;1.00;;
8151;SDS011;4117;53.622;9.958;2022-10-30T05:04:07;0.77;;;0.70;;
8151;SDS011;4117;53.622;9.958;2022-10-30T05:06:34;0.73;;;0.63;;
8151;SDS011;4117;53.622;9.958;2022-10-30T05:09:01;1.53;;;0.87;;
8151;SDS011;4117;53.622;9.958;2022-10-30T05:11:28;0.80;;;0.80;;
8151;SDS011;4117;53.622;9.958;2022-10-30T05:13:56;1.07;;;0.93;;
8151;SDS011;4117;53.622;9.958;2022-10-30T05:16:23;1.20;;;0.73;;
8151;SDS011;4117;53.622;9.958;2022-10-30T05:18:50;0.87;;;0.80;;
8151;SDS011;4117;53.622;9.958;2022-10-30T05:21:17;1.40;;;1.10;;
8151;SDS011;4117;53.622;9.958;2022-10-30T05:23:44;0.87;;;0.83;;
8151;SDS011;4117;53.622;9.958;2022-10-30T05:26:10;0.90;;;0.67;;
8151;SDS011;4117;53.622;9.958;2022-10-30T05:28:37;3.87;;;1.00;;
8151;SDS011;4117;53.622;9.958;2022-10-30T05:31:06;1.30;;;0.90;;
8151;SDS011;4117;53.622;9.958;2022-10-30T05:33:33;1.60;;;1.00;;
8151;SDS011;4117;53.622;9.958;2022-10-30T05:36:00;4.17;;;0.60;;
8151;SDS011;4117;53.622;9.958;2022-10-30T05:38:27;0.93;;;0.63;;
8151;SDS011;4117;53.622;9.958;2022-10-30T05:40:53;1.47;;;1.10;;
8151;SDS011;4117;53.622;9.958;2022-10-30T05:43:20;1.03;;;0.63;;
8151;SDS011;4117;53.622;9.958;2022-10-30T05:45:47;0.70;;;0.67;;
8151;SDS011;4117;53.622;9.958;2022-10-30T05:48:15;1.27;;;0.80;;
8151;SDS011;4117;53.622;9.958;2022-10-30T05:50:42;1.13;;;0.80;;
8151;SDS011;4117;53.622;9.958;2022-10-30T05:53:09;2.07;;;0.90;;
8151;SDS011;4117;53.622;9.958;2022-10-30T05:55:36;2.33;;;0.90;;
8151;SDS011;4117;53.622;9.958;2022-10-30T05:58:03;0.87;;;0.70;;
8151;SDS011;4117;53.622;9.958;2022-10-30T06:00:31;1.83;;;0.90;;
8151;SDS011;4117;53.622;9.958;2022-10-30T06:02:59;2.27;;;0.70;;
8151;SDS011;4117;53.622;9.958;2022-10-30T06:05:28;0.77;;;0.77;;
8151;SDS011;4117;53.622;9.958;2022-10-30T06:07:56;1.60;;;0.83;;
8151;SDS011;4117;53.622;9.958;2022-10-30T06:10:23;1.00;;;0.90;;
8151;SDS011;4117;53.622;9.958;2022-10-30T06:12:53;1.00;;;0.73;;
8151;SDS011;4117;53.622;9.958;2022-10-30T06:15:21;2.70;;;1.03;;
8151;SDS011;4117;53.622;9.958;2022-10-30T06:17:48;1.30;;;0.73;;
8151;SDS011;4117;53.622;9.958;2022-10-30T06:20:15;0.73;;;0.63;;
8151;SDS011;4117;53.622;9.958;2022-10-30T06:22:53;1.10;;;0.83;;
8151;SDS011;4117;53.622;9.958;2022-10-30T06:25:20;0.50;;;0.50;;
8151;SDS011;4117;53.622;9.958;2022-10-30T06:27:47;0.50;;;0.50;;
8151;SDS011;4117;53.622;9.958;2022-10-30T06:30:14;1.13;;;0.80;;
8151;SDS011;4117;53.622;9.958;2022-10-30T06:32:41;1.00;;;0.90;;
8151;SDS011;4117;53.622;9.958;2022-10-30T06:35:08;1.30;;;0.70;;
8151;SDS011;4117;53.622;9.958;2022-10-30T06:37:35;1.60;;;0.80;;
8151;SDS011;4117;53.622;9.958;2022-10-30T06:40:05;1.33;;;0.80;;
8151;SDS011;4117;53.622;9.958;2022-10-30T06:42:40;1.17;;;1.00;;
8151;SDS011;4117;53.622;9.958;2022-10-30T06:45:08;0.53;;;0.53;;
8151;SDS011;4117;53.622;9.958;2022-10-30T06:47:35;1.27;;;0.90;;
8151;SDS011;4117;53.622;9.958;2022-10-30T06:50:02;1.87;;;1.30;;
8151;SDS011;4117;53.622;9.958;2022-10-30T06:52:29;1.47;;;0.80;;
8151;SDS011;4117;53.622;9.958;2022-10-30T06:54:56;0.50;;;0.50;;
8151;SDS011;4117;53.622;9.958;2022-10-30T06:57:24;1.77;;;0.80;;
8151;SDS011;4117;53.622;9.958;2022-10-30T06:59:51;4.13;;;0.70;;
8151;SDS011;4117;53.622;9.958;2022-10-30T07:02:18;1.97;;;0.80;;
8151;SDS011;4117;53.622;9.958;2022-10-30T07:04:44;0.97;;;0.60;;
8151;SDS011;4117;53.622;9.958;2022-10-30T07:07:11;1.03;;;1.00;;
8151;SDS011;4117;53.622;9.958;2022-10-30T07:09:38;2.30;;;1.33;;
8151;SDS011;4117;53.622;9.958;2022-10-30T07:12:05;1.13;;;0.80;;
8151;SDS011;4117;53.622;9.958;2022-10-30T07:14:34;3.10;;;0.70;;
8151;SDS011;4117;53.622;9.958;2022-10-30T07:17:01;1.53;;;0.80;;
8151;SDS011;4117;53.622;9.958;2022-10-30T07:19:28;1.83;;;1.00;;
8151;SDS011;4117;53.622;9.958;2022-10-30T07:21:54;0.83;;;0.70;;
8151;SDS011;4117;53.622;9.958;2022-10-30T07:24:21;0.87;;;0.80;;
8151;SDS011;4117;53.622;9.958;2022-10-30T07:26:48;0.67;;;0.60;;
8151;SDS011;4117;53.622;9.958;2022-10-30T07:29:15;0.73;;;0.70;;
8151;SDS011;4117;53.622;9.958;2022-10-30T07:31:43;0.40;;;0.40;;
8151;SDS011;4117;53.622;9.958;2022-10-30T07:34:11;1.20;;;0.93;;
8151;SDS011;4117;53.622;9.958;2022-10-30T07:36:38;1.10;;;1.00;;
8151;SDS011;4117;53.622;9.958;2022-10-30T07:39:04;0.87;;;0.50;;
8151;SDS011;4117;53.622;9.958;2022-10-30T07:41:31;2.63;;;1.10;;
8151;SDS011;4117;53.622;9.958;2022-10-30T07:43:58;0.87;;;0.60;;
8151;SDS011;4117;53.622;9.958;2022-10-30T07:46:25;0.70;;;0.50;;
8151;SDS011;4117;53.622;9.958;2022-10-30T07:48:53;0.80;;;0.60;;
8151;SDS011;4117;53.622;9.958;2022-10-30T07:51:20;1.10;;;0.87;;
8151;SDS011;4117;53.622;9.958;2022-10-30T07:53:47;1.43;;;1.10;;
8151;SDS011;4117;53.622;9.958;2022-10-30T07:56:14;2.10;;;0.67;;
8151;SDS011;4117;53.622;9.958;2022-10-30T07:58:41;1.00;;;0.70;;
8151;SDS011;4117;53.622;9.958;2022-10-30T08:01:08;0.77;;;0.77;;
8151;SDS011;4117;53.622;9.958;2022-10-30T08:03:35;1.37;;;0.90;;
8151;SDS011;4117;53.622;9.958;2022-10-30T08:06:03;0.43;;;0.43;;
8151;SDS011;4117;53.622;9.958;2022-10-30T08:08:30;1.20;;;0.97;;
8151;SDS011;4117;53.622;9.958;2022-10-30T08:10:57;0.77;;;0.77;;
8151;SDS011;4117;53.622;9.958;2022-10-30T08:13:24;1.20;;;0.80;;
8151;SDS011;4117;53.622;9.958;2022-10-30T08:15:51;1.07;;;0.80;;
8151;SDS011;4117;53.622;9.958;2022-10-30T08:18:17;1.50;;;0.97;;
8151;SDS011;4117;53.622;9.958;2022-10-30T08:20:47;0.90;;;0.60;;
8151;SDS011;4117;53.622;9.958;2022-10-30T08:23:16;2.00;;;0.53;;
8151;SDS011;4117;53.622;9.958;2022-10-30T08:25:43;1.00;;;0.80;;
8151;SDS011;4117;53.622;9.958;2022-10-30T08:28:11;0.60;;;0.50;;
8151;SDS011;4117;53.622;9.958;2022-10-30T08:30:38;0.80;;;0.77;;
8151;SDS011;4117;53.622;9.958;2022-10-30T08:33:06;0.70;;;0.60;;
8151;SDS011;4117;53.622;9.958;2022-10-30T08:35:37;0.30;;;0.30;;
8151;SDS011;4117;53.622;9.958;2022-10-30T08:38:04;0.63;;;0.53;;
8151;SDS011;4117;53.622;9.958;2022-10-30T08:40:32;1.33;;;0.90;;
8151;SDS011;4117;53.622;9.958;2022-10-30T08:42:59;1.40;;;0.60;;
8151;SDS011;4117;53.622;9.958;2022-10-30T08:45:26;0.60;;;0.60;;
8151;SDS011;4117;53.622;9.958;2022-10-30T08:47:56;1.00;;;0.70;;
8151;SDS011;4117;53.622;9.958;2022-10-30T08:50:23;0.97;;;0.53;;
8151;SDS011;4117;53.622;9.958;2022-10-30T08:52:50;0.50;;;0.50;;
8151;SDS011;4117;53.622;9.958;2022-10-30T08:55:17;0.50;;;0.50;;
8151;SDS011;4117;53.622;9.958;2022-10-30T08:57:45;0.60;;;0.60;;
8151;SDS011;4117;53.622;9.958;2022-10-30T09:00:12;0.50;;;0.50;;
8151;SDS011;4117;53.622;9.958;2022-10-30T09:02:39;0.83;;;0.60;;
8151;SDS011;4117;53.622;9.958;2022-10-30T09:05:06;0.57;;;0.57;;
8151;SDS011;4117;53.622;9.958;2022-10-30T09:07:33;0.60;;;0.60;;
8151;SDS011;4117;53.622;9.958;2022-10-30T09:10:01;0.70;;;0.67;;
8151;SDS011;4117;53.622;9.958;2022-10-30T09:12:28;0.90;;;0.70;;
8151;SDS011;4117;53.622;9.958;2022-10-30T09:14:56;0.83;;;0.57;;
8151;SDS011;4117;53.622;9.958;2022-10-30T09:17:23;1.23;;;0.83;;
8151;SDS011;4117;53.622;9.958;2022-10-30T09:19:50;0.73;;;0.67;;
8151;SDS011;4117;53.622;9.958;2022-10-30T09:22:17;0.43;;;0.43;;
8151;SDS011;4117;53.622;9.958;2022-10-30T09:24:44;1.20;;;1.10;;
8151;SDS011;4117;53.622;9.958;2022-10-30T09:27:11;1.40;;;0.77;;
8151;SDS011;4117;53.622;9.958;2022-10-30T09:29:37;0.87;;;0.70;;
8151;SDS011;4117;53.622;9.958;2022-10-30T09:32:06;1.93;;;0.97;;
8151;SDS011;4117;53.622;9.958;2022-10-30T09:34:34;3.20;;;1.00;;
8151;SDS011;4117;53.622;9.958;2022-10-30T09:37:01;0.97;;;0.80;;
8151;SDS011;4117;53.622;9.958;2022-10-30T09:39:28;2.17;;;1.10;;
8151;SDS011;4117;53.622;9.958;2022-10-30T09:42:00;2.03;;;1.20;;
8151;SDS011;4117;53.622;9.958;2022-10-30T09:44:41;1.07;;;0.90;;
8151;SDS011;4117;53.622;9.958;2022-10-30T09:47:21;1.27;;;1.10;;
8151;SDS011;4117;53.622;9.958;2022-10-30T09:50:01;1.87;;;1.30;;
8151;SDS011;4117;53.622;9.958;2022-10-30T09:52:39;2.00;;;1.17;;
8151;SDS011;4117;53.622;9.958;2022-10-30T09:55:16;2.33;;;1.07;;
8151;SDS011;4117;53.622;9.958;2022-10-30T09:57:53;3.90;;;1.03;;
8151;SDS011;4117;53.622;9.958;2022-10-30T10:00:29;1.63;;;1.07;;
8151;SDS011;4117;53.622;9.958;2022-10-30T10:03:11;2.50;;;1.30;;
8151;SDS011;4117;53.622;9.958;2022-10-30T10:05:52;3.27;;;1.23;;
8151;SDS011;4117;53.622;9.958;2022-10-30T10:08:21;3.40;;;1.37;;
8151;SDS011;4117;53.622;9.958;2022-10-30T10:10:50;1.70;;;1.60;;
8151;SDS011;4117;53.622;9.958;2022-10-30T10:13:23;2.63;;;1.33;;
8151;SDS011;4117;53.622;9.958;2022-10-30T10:15:57;3.03;;;1.67;;
8151;SDS011;4117;53.622;9.958;2022-10-30T10:18:30;1.67;;;1.00;;
8151;SDS011;4117;53.622;9.958;2022-10-30T10:21:05;4.50;;;1.70;;
8151;SDS011;4117;53.622;9.958;2022-10-30T10:23:38;2.13;;;1.17;;
8151;SDS011;4117;53.622;9.958;2022-10-30T10:26:15;2.53;;;1.20;;
8151;SDS011;4117;53.622;9.958;2022-10-30T10:28:54;1.00;;;0.90;;
8151;SDS011;4117;53.622;9.958;2022-10-30T10:31:33;2.43;;;1.60;;
8151;SDS011;4117;53.622;9.958;2022-10-30T10:34:15;1.63;;;1.07;;
8151;SDS011;4117;53.622;9.958;2022-10-30T10:36:53;1.33;;;1.13;;
8151;SDS011;4117;53.622;9.958;2022-10-30T10:39:33;4.33;;;1.20;;
8151;SDS011;4117;53.622;9.958;2022-10-30T10:42:15;2.23;;;1.33;;
8151;SDS011;4117;53.622;9.958;2022-10-30T10:44:49;4.30;;;1.57;;
8151;SDS011;4117;53.622;9.958;2022-10-30T10:47:29;1.90;;;1.47;;
8151;SDS011;4117;53.622;9.958;2022-10-30T10:50:17;5.97;;;1.90;;
8151;SDS011;4117;53.622;9.958;2022-10-30T10:52:48;2.30;;;1.63;;
8151;SDS011;4117;53.622;9.958;2022-10-30T10:55:19;3.73;;;2.10;;
8151;SDS011;4117;53.622;9.958;2022-10-30T10:57:48;3.60;;;1.70;;
8151;SDS011;4117;53.622;9.958;2022-10-30T11:00:18;4.33;;;1.30;;
8151;SDS011;4117;53.622;9.958;2022-10-30T11:02:49;4.40;;;1.30;;
8151;SDS011;4117;53.622;9.958;2022-10-30T11:05:25;2.20;;;1.37;;
8151;SDS011;4117;53.622;9.958;2022-10-30T11:07:57;1.20;;;1.10;;
8151;SDS011;4117;53.622;9.958;2022-10-30T11:10:27;1.90;;;1.03;;
8151;SDS011;4117;53.622;9.958;2022-10-30T11:12:54;4.47;;;1.87;;
8151;SDS011;4117;53.622;9.958;2022-10-30T11:15:24;2.83;;;1.40;;
8151;SDS011;4117;53.622;9.958;2022-10-30T11:18:00;8.60;;;1.70;;
8151;SDS011;4117;53.622;9.958;2022-10-30T11:20:32;2.87;;;1.90;;
8151;SDS011;4117;53.622;9.958;2022-10-30T11:23:03;2.37;;;1.30;;
8151;SDS011;4117;53.622;9.958;2022-10-30T11:26:03;4.13;;;1.70;;
8151;SDS011;4117;53.622;9.958;2022-10-30T11:28:49;1.33;;;1.20;;
8151;SDS011;4117;53.622;9.958;2022-10-30T11:31:20;4.37;;;1.77;;
8151;SDS011;4117;53.622;9.958;2022-10-30T11:33:49;1.97;;;1.50;;
8151;SDS011;4117;53.622;9.958;2022-10-30T11:36:18;4.57;;;1.70;;
8151;SDS011;4117;53.622;9.958;2022-10-30T11:38:48;2.93;;;1.80;;
8151;SDS011;4117;53.622;9.958;2022-10-30T11:41:15;3.47;;;1.80;;
8151;SDS011;4117;53.622;9.958;2022-10-30T11:43:43;2.90;;;1.50;;
8151;SDS011;4117;53.622;9.958;2022-10-30T11:46:15;4.83;;;1.37;;
8151;SDS011;4117;53.622;9.958;2022-10-30T11:48:46;5.07;;;1.87;;
8151;SDS011;4117;53.622;9.958;2022-10-30T11:51:28;2.27;;;1.80;;
8151;SDS011;4117;53.622;9.958;2022-10-30T11:53:57;1.90;;;1.43;;
8151;SDS011;4117;53.622;9.958;2022-10-30T11:56:24;4.50;;;1.50;;
8151;SDS011;4117;53.622;9.958;2022-10-30T11:58:53;2.40;;;1.60;;
8151;SDS011;4117;53.622;9.958;2022-10-30T12:01:22;2.77;;;1.30;;
8151;SDS011;4117;53.622;9.958;2022-10-30T12:03:50;2.30;;;1.63;;
8151;SDS011;4117;53.622;9.958;2022-10-30T12:06:20;4.80;;;1.80;;
8151;SDS011;4117;53.622;9.958;2022-10-30T12:09:00;1.50;;;1.30;;
8151;SDS011;4117;53.622;9.958;2022-10-30T12:11:29;2.23;;;1.50;;
8151;SDS011;4117;53.622;9.958;2022-10-30T12:13:58;3.67;;;1.40;;
8151;SDS011;4117;53.622;9.958;2022-10-30T12:16:25;2.73;;;1.50;;
8151;SDS011;4117;53.622;9.958;2022-10-30T12:18:54;3.40;;;1.50;;
8151;SDS011;4117;53.622;9.958;2022-10-30T12:21:25;5.77;;;1.43;;
8151;SDS011;4117;53.622;9.958;2022-10-30T12:23:54;7.37;;;1.77;;
8151;SDS011;4117;53.622;9.958;2022-10-30T12:26:24;5.00;;;1.43;;
8151;SDS011;4117;53.622;9.958;2022-10-30T12:28:53;2.27;;;1.60;;
8151;SDS011;4117;53.622;9.958;2022-10-30T12:31:25;2.70;;;1.50;;
8151;SDS011;4117;53.622;9.958;2022-10-30T12:34:03;3.77;;;1.80;;
8151;SDS011;4117;53.622;9.958;2022-10-30T12:36:39;2.90;;;1.10;;
8151;SDS011;4117;53.622;9.958;2022-10-30T12:39:11;3.93;;;1.60;;
8151;SDS011;4117;53.622;9.958;2022-10-30T12:41:44;1.13;;;0.97;;
8151;SDS011;4117;53.622;9.958;2022-10-30T12:44:17;4.57;;;1.40;;
8151;SDS011;4117;53.622;9.958;2022-10-30T12:46:47;2.00;;;1.30;;
8151;SDS011;4117;53.622;9.958;2022-10-30T12:49:19;1.57;;;1.33;;
8151;SDS011;4117;53.622;9.958;2022-10-30T12:51:51;1.93;;;1.37;;
8151;SDS011;4117;53.622;9.958;2022-10-30T12:54:24;2.40;;;1.37;;
8151;SDS011;4117;53.622;9.958;2022-10-30T12:57:02;1.60;;;1.37;;
8151;SDS011;4117;53.622;9.958;2022-10-30T12:59:34;1.93;;;1.50;;
8151;SDS011;4117;53.622;9.958;2022-10-30T13:02:11;3.57;;;1.53;;
8151;SDS011;4117;53.622;9.958;2022-10-30T13:04:47;2.17;;;1.27;;
8151;SDS011;4117;53.622;9.958;2022-10-30T13:07:21;3.10;;;1.63;;
8151;SDS011;4117;53.622;9.958;2022-10-30T13:09:55;1.43;;;1.27;;
8151;SDS011;4117;53.622;9.958;2022-10-30T13:12:31;1.50;;;1.23;;
8151;SDS011;4117;53.622;9.958;2022-10-30T13:15:02;2.20;;;1.50;;
8151;SDS011;4117;53.622;9.958;2022-10-30T13:17:34;2.93;;;1.70;;
8151;SDS011;4117;53.622;9.958;2022-10-30T13:20:01;2.83;;;1.57;;
8151;SDS011;4117;53.622;9.958;2022-10-30T13:22:35;1.83;;;1.40;;
8151;SDS011;4117;53.622;9.958;2022-10-30T13:25:09;3.17;;;1.40;;
8151;SDS011;4117;53.622;9.958;2022-10-30T13:27:43;4.27;;;1.33;;
8151;SDS011;4117;53.622;9.958;2022-10-30T13:30:16;3.33;;;1.43;;
8151;SDS011;4117;53.622;9.958;2022-10-30T13:32:53;3.47;;;1.33;;
8151;SDS011;4117;53.622;9.958;2022-10-30T13:35:28;2.83;;;1.33;;
8151;SDS011;4117;53.622;9.958;2022-10-30T13:38:03;3.10;;;1.40;;
8151;SDS011;4117;53.622;9.958;2022-10-30T13:40:51;1.97;;;1.30;;
8151;SDS011;4117;53.622;9.958;2022-10-30T13:43:25;2.37;;;1.20;;
8151;SDS011;4117;53.622;9.958;2022-10-30T13:46:02;2.57;;;1.27;;
8151;SDS011;4117;53.622;9.958;2022-10-30T13:48:49;3.17;;;1.57;;
8151;SDS011;4117;53.622;9.958;2022-10-30T13:51:37;2.13;;;1.40;;
8151;SDS011;4117;53.622;9.958;2022-10-30T13:54:08;2.97;;;1.80;;
8151;SDS011;4117;53.622;9.958;2022-10-30T13:56:42;2.97;;;1.50;;
8151;SDS011;4117;53.622;9.958;2022-10-30T13:59:16;2.57;;;1.43;;
8151;SDS011;4117;53.622;9.958;2022-10-30T14:01:54;2.13;;;1.40;;
8151;SDS011;4117;53.622;9.958;2022-10-30T14:04:28;2.13;;;0.83;;
8151;SDS011;4117;53.622;9.958;2022-10-30T14:07:09;1.47;;;0.97;;
8151;SDS011;4117;53.622;9.958;2022-10-30T14:09:47;1.57;;;1.27;;
8151;SDS011;4117;53.622;9.958;2022-10-30T14:12:41;2.67;;;1.13;;
8151;SDS011;4117;53.622;9.958;2022-10-30T14:15:15;1.43;;;1.20;;
8151;SDS011;4117;53.622;9.958;2022-10-30T14:20:52;2.10;;;1.07;;
8151;SDS011;4117;53.622;9.958;2022-10-30T14:23:20;1.73;;;1.10;;
8151;SDS011;4117;53.622;9.958;2022-10-30T14:28:40;1.17;;;1.03;;
8151;SDS011;4117;53.622;9.958;2022-10-30T14:31:11;1.20;;;1.03;;
8151;SDS011;4117;53.622;9.958;2022-10-30T14:33:41;1.40;;;1.17;;
8151;SDS011;4117;53.622;9.958;2022-10-30T14:36:17;3.57;;;1.97;;
8151;SDS011;4117;53.622;9.958;2022-10-30T14:38:53;2.73;;;1.37;;
8151;SDS011;4117;53.622;9.958;2022-10-30T14:47:27;1.80;;;1.50;;
8151;SDS011;4117;53.622;9.958;2022-10-30T14:50:12;1.50;;;1.20;;
8151;SDS011;4117;53.622;9.958;2022-10-30T14:52:44;1.23;;;1.00;;
8151;SDS011;4117;53.622;9.958;2022-10-30T14:55:27;2.97;;;1.10;;
8151;SDS011;4117;53.622;9.958;2022-10-30T14:58:16;10.87;;;1.10;;
8151;SDS011;4117;53.622;9.958;2022-10-30T15:00:48;1.43;;;1.10;;
8151;SDS011;4117;53.622;9.958;2022-10-30T15:03:26;1.00;;;0.83;;
8151;SDS011;4117;53.622;9.958;2022-10-30T15:06:05;7.10;;;1.30;;
8151;SDS011;4117;53.622;9.958;2022-10-30T15:08:56;2.13;;;1.10;;
8151;SDS011;4117;53.622;9.958;2022-10-30T15:11:43;3.93;;;1.23;;
8151;SDS011;4117;53.622;9.958;2022-10-30T15:14:33;2.03;;;1.20;;
8151;SDS011;4117;53.622;9.958;2022-10-30T15:17:03;2.70;;;1.20;;
8151;SDS011;4117;53.622;9.958;2022-10-30T15:19:32;1.67;;;1.17;;
8151;SDS011;4117;53.622;9.958;2022-10-30T15:22:00;1.97;;;1.40;;
8151;SDS011;4117;53.622;9.958;2022-10-30T15:24:27;1.63;;;1.10;;
8151;SDS011;4117;53.622;9.958;2022-10-30T15:26:57;1.20;;;1.10;;
8151;SDS011;4117;53.622;9.958;2022-10-30T15:29:26;2.13;;;1.10;;
8151;SDS011;4117;53.622;9.958;2022-10-30T15:31:55;1.23;;;1.00;;
8151;SDS011;4117;53.622;9.958;2022-10-30T15:34:25;1.03;;;0.93;;
8151;SDS011;4117;53.622;9.958;2022-10-30T15:36:53;0.87;;;0.77;;
8151;SDS011;4117;53.622;9.958;2022-10-30T15:39:21;2.77;;;1.10;;
8151;SDS011;4117;53.622;9.958;2022-10-30T15:41:48;1.63;;;1.20;;
8151;SDS011;4117;53.622;9.958;2022-10-30T15:44:18;3.30;;;0.83;;
8151;SDS011;4117;53.622;9.958;2022-10-30T15:46:48;1.37;;;1.13;;
8151;SDS011;4117;53.622;9.958;2022-10-30T15:49:19;1.40;;;1.10;;